.
WxDataArchive / Data Records for 2013-02-05
2013-02-04 February 2013 2013-02-06

Data Records for Tuesday, 05 February 2013

Time	Temp	Chill	HIndex	Humid	Dewpt	 Wind 	HiWind	WindDir	Rain 	Barom 
-----	----	-----	------	-----	-----	------	------	-------	-----	----- 
00:00	22.4	22.4	22.4	88	19.4	0	0	---	0.00	29.945 
00:05	22.4	22.4	22.4	88	19.4	0	0	---	0.00	29.945 
00:10	22.2	22.2	22.2	88	19.2	0	0	---	0.00	29.945 
00:15	22.2	22.2	22.2	88	19.2	0	0	---	0.00	29.944 
00:20	22.1	22.1	22.1	88	19.1	0	0	---	0.00	29.944 
00:25	21.9	21.9	21.9	88	18.9	0	0	---	0.00	29.944 
00:30	21.8	21.8	21.8	88	18.8	0	0	---	0.00	29.934 
00:35	21.6	21.6	21.6	87	18.3	0	0	---	0.00	29.934 
00:40	21.4	21.4	21.4	87	18.1	0	0	---	0.00	29.934 
00:45	21.3	21.3	21.3	88	18.3	0	0	---	0.00	29.934 
00:50	21.1	21.1	21.1	88	18.1	0	0	---	0.00	29.934 
00:55	21.0	21.0	21.0	88	18.0	0	0	---	0.00	29.934 
01:00	20.8	20.8	20.8	88	17.8	0	0	---	0.00	29.943 
01:05	20.8	20.8	20.8	88	17.8	0	0	---	0.00	29.943 
01:10	20.8	20.8	20.8	88	17.8	0	0	---	0.00	29.943 
01:15	20.8	20.8	20.8	88	17.8	0	0	---	0.00	29.941 
01:20	20.6	20.6	20.6	88	17.6	0	0	---	0.00	29.941 
01:25	20.6	20.6	20.6	88	17.6	0	0	---	0.00	29.941 
01:30	20.8	20.8	20.8	88	17.8	0	0	---	0.00	29.932 
01:35	20.8	20.8	20.8	88	17.8	0	0	---	0.00	29.932 
01:40	20.8	20.8	20.8	88	17.8	0	0	---	0.00	29.932 
01:45	21.0	21.0	21.0	88	18.0	0	0	---	0.00	29.936 
01:50	21.0	21.0	21.0	88	18.0	0	0	---	0.00	29.936 
01:55	21.1	21.1	21.1	88	18.1	0	0	---	0.00	29.936 
02:00	21.1	21.1	21.1	89	18.4	0	0	---	0.00	29.940 
02:05	21.3	21.3	21.3	89	18.6	0	0	---	0.00	29.940 
02:10	21.3	21.3	21.3	89	18.6	0	0	---	0.00	29.940 
02:15	21.3	21.3	21.3	89	18.6	0	0	---	0.00	29.950 
02:20	21.3	21.3	21.3	89	18.6	0	0	---	0.00	29.950 
02:25	21.1	21.1	21.1	88	18.1	0	0	---	0.00	29.950 
02:30	20.8	20.8	20.8	88	17.8	0	0	---	0.00	29.956 
02:35	20.3	20.3	20.3	88	17.3	0	0	---	0.00	29.956 
02:40	19.9	19.9	19.9	88	16.9	0	0	---	0.00	29.956 
02:45	19.5	19.5	19.5	88	16.5	0	0	---	0.00	29.961 
02:50	19.1	19.1	19.1	88	16.1	0	0	---	0.00	29.961 
02:55	18.6	18.6	18.6	87	15.4	0	0	---	0.00	29.961 
03:00	18.0	18.0	18.0	87	14.8	0	0	---	0.00	29.950 
03:05	17.5	17.5	17.5	87	14.3	0	0	---	0.00	29.950 
03:10	16.9	16.9	16.9	87	13.7	0	0	---	0.00	29.950 
03:15	16.4	16.4	16.4	87	13.2	0	0	---	0.00	29.952 
03:20	16.1	16.1	16.1	88	13.2	0	0	---	0.00	29.952 
03:25	15.7	15.7	15.7	88	12.8	0	0	---	0.00	29.952 
03:30	15.4	15.4	15.4	87	12.2	0	0	---	0.00	29.955 
03:35	15.1	15.1	15.1	87	11.9	0	0	---	0.00	29.955 
03:40	14.9	14.9	14.9	88	12.0	0	0	---	0.00	29.955 
03:45	14.9	14.9	14.9	88	12.0	0	0	---	0.00	29.953 
03:50	14.9	14.9	14.9	88	12.0	0	0	---	0.00	29.953 
03:55	15.1	15.1	15.1	88	12.2	0	0	---	0.00	29.953 
04:00	15.6	15.6	15.6	88	12.7	0	0	---	0.00	29.956 
04:05	15.9	15.9	15.9	88	13.0	0	0	---	0.00	29.956 
04:10	16.2	16.2	16.2	88	13.3	0	0	---	0.00	29.956 
04:15	16.4	16.4	16.4	88	13.5	0	0	---	0.00	29.951 
04:20	16.5	16.5	16.5	88	13.6	0	0	---	0.00	29.951 
04:25	16.9	16.9	16.9	89	14.2	0	0	---	0.00	29.951 
04:30	17.0	17.0	17.0	89	14.3	0	0	---	0.00	29.947 
04:35	17.2	17.2	17.2	89	14.5	0	0	---	0.00	29.947 
04:40	17.3	17.3	17.3	89	14.6	0	0	---	0.00	29.947 
04:45	17.5	17.5	17.5	89	14.8	0	0	---	0.00	29.937 
04:50	17.5	17.5	17.5	89	14.8	0	0	---	0.00	29.937 
04:55	17.7	17.7	17.7	89	15.0	0	0	---	0.00	29.937 
05:00	17.7	17.7	17.7	89	15.0	0	0	---	0.00	29.937 
05:05	17.7	17.7	17.7	89	15.0	0	0	---	0.00	29.937 
05:10	17.7	17.7	17.7	89	15.0	0	0	---	0.00	29.937 
05:15	17.7	17.7	17.7	89	15.0	0	0	---	0.00	29.949 
05:20	17.7	17.7	17.7	89	15.0	0	0	---	0.00	29.949 
05:25	17.7	17.7	17.7	89	15.0	0	0	---	0.00	29.949 
05:30	17.7	17.7	17.7	89	15.0	0	0	---	0.00	29.933 
05:35	17.7	17.7	17.7	89	15.0	0	0	---	0.00	29.933 
05:40	17.7	17.7	17.7	89	15.0	0	0	---	0.00	29.933 
05:45	17.5	17.5	17.5	89	14.8	0	0	---	0.00	29.935 
05:50	17.3	17.3	17.3	89	14.6	0	0	---	0.00	29.935 
05:55	17.2	17.2	17.2	89	14.5	0	0	---	0.00	29.935 
06:00	17.2	17.2	17.2	89	14.5	0	0	---	0.00	29.936 
06:05	16.9	16.9	16.9	89	14.2	0	0	---	0.00	29.936 
06:10	16.7	16.7	16.7	89	14.0	0	0	---	0.00	29.936 
06:15	16.4	16.4	16.4	89	13.7	0	0	---	0.00	29.937 
06:20	16.1	16.1	16.1	89	13.4	0	0	---	0.00	29.937 
06:25	15.7	15.7	15.7	88	12.8	0	0	---	0.00	29.937 
06:30	15.4	15.4	15.4	88	12.5	0	0	---	0.00	29.945 
06:35	15.2	15.2	15.2	88	12.3	0	0	---	0.00	29.945 
06:40	14.9	14.9	14.9	88	12.0	0	0	---	0.00	29.945 
06:45	14.8	14.8	14.8	88	11.9	0	0	---	0.00	29.957 
06:50	14.6	14.6	14.6	88	11.7	0	0	---	0.00	29.957 
06:55	14.6	14.6	14.6	88	11.7	0	0	---	0.00	29.957 
07:00	14.6	14.6	14.6	88	11.7	0	0	---	0.00	29.961 
07:05	14.4	14.4	14.4	88	11.5	0	0	---	0.00	29.961 
07:10	14.3	14.3	14.3	88	11.4	0	0	---	0.00	29.961 
07:15	14.1	14.1	14.1	88	11.2	0	0	---	0.00	29.954 
07:20	14.0	14.0	14.0	88	11.1	0	0	---	0.00	29.954 
07:25	13.6	13.6	13.6	88	10.7	0	0	---	0.00	29.954 
07:30	13.3	13.3	13.3	88	10.4	0	0	---	0.00	29.951 
07:35	13.1	13.1	13.1	88	10.2	0	0	---	0.00	29.951 
07:40	12.8	12.8	12.8	88	9.9	0	0	---	0.00	29.951 
07:45	12.6	12.6	12.6	88	9.7	0	0	---	0.00	29.966 
07:50	12.4	12.4	12.4	88	9.5	0	0	---	0.00	29.966 
07:55	12.4	12.4	12.4	88	9.5	0	0	---	0.00	29.966 
08:00	12.3	12.3	12.3	88	9.4	0	0	---	0.00	29.969 
08:05	12.1	12.1	12.1	88	9.2	0	0	---	0.00	29.969 
08:10	12.1	12.1	12.1	88	9.2	0	0	---	0.00	29.969 
08:15	12.3	12.3	12.3	88	9.4	0	0	---	0.00	29.980 
08:20	12.6	12.6	12.6	88	9.7	0	0	---	0.00	29.980 
08:25	12.9	12.9	12.9	88	10.0	0	0	---	0.00	29.980 
08:30	13.3	13.3	13.3	88	10.4	0	0	---	0.00	29.971 
08:35	13.6	13.6	13.6	89	11.0	0	0	---	0.00	29.971 
08:40	14.1	14.1	14.1	89	11.5	0	0	---	0.00	29.971 
08:45	14.4	14.4	14.4	89	11.8	0	0	---	0.00	29.970 
08:50	14.9	14.9	14.9	89	12.3	0	0	---	0.00	29.970 
08:55	15.2	15.2	15.2	89	12.6	0	0	---	0.00	29.970 
09:00	15.7	15.7	15.7	89	13.0	0	0	---	0.00	29.967 
09:05	16.2	16.2	16.2	89	13.5	0	0	---	0.00	29.967 
09:10	16.7	16.7	16.7	89	14.0	0	0	---	0.00	29.967 
09:15	17.3	17.3	17.3	90	14.9	0	0	---	0.00	29.967 
09:20	18.0	18.0	18.0	90	15.6	0	0	---	0.00	29.967 
09:25	18.4	18.4	18.4	90	16.0	0	0	---	0.00	29.967 
09:30	18.9	18.9	18.9	90	16.5	0	0	---	0.00	29.965 
09:35	19.2	19.2	19.2	90	16.8	0	0	---	0.00	29.965 
09:40	19.2	19.2	19.2	90	16.8	0	1	90	0.00	29.965 
09:45	19.4	19.4	19.4	90	17.0	0	1	90	0.00	29.964 
09:50	19.7	19.7	19.7	90	17.3	0	0	---	0.00	29.964 
09:55	20.2	20.2	20.2	90	17.7	0	1	90	0.00	29.964 
10:00	20.6	20.6	20.6	90	18.1	0	1	90	0.00	29.959 
10:05	21.4	21.4	21.4	91	19.2	0	1	90	0.00	29.959 
10:10	22.1	22.1	22.1	91	19.9	0	2	90	0.00	29.959 
10:15	22.5	22.5	22.5	90	20.0	0	1	90	0.00	29.962 
10:20	22.7	22.7	22.7	89	20.0	1	3	90	0.00	29.962 
10:25	22.7	22.7	22.7	89	20.0	0	2	90	0.00	29.962 
10:30	23.2	23.2	23.2	88	20.2	0	2	90	0.00	29.954 
10:35	23.5	23.5	23.5	88	20.5	1	3	45	0.00	29.954 
10:40	23.5	23.5	23.5	86	19.9	1	3	68	0.00	29.954 
10:45	23.5	23.5	23.5	85	19.7	1	3	90	0.00	29.950 
10:50	23.5	23.5	23.5	84	19.4	0	2	90	0.00	29.950 
10:55	23.5	23.5	23.5	84	19.4	0	2	90	0.00	29.950 
11:00	23.6	23.6	23.6	84	19.5	1	4	90	0.00	29.947 
11:05	24.1	24.1	24.1	84	20.0	0	2	90	0.00	29.947 
11:10	24.7	24.7	24.7	83	20.3	0	2	90	0.00	29.947 
11:15	25.0	25.0	25.0	81	20.0	0	2	90	0.00	29.943 
11:20	25.0	25.0	25.0	80	19.7	1	4	90	0.00	29.943 
11:25	24.8	24.8	24.8	80	19.5	1	4	90	0.00	29.943 
11:30	25.0	25.0	25.0	79	19.4	1	4	90	0.00	29.936 
11:35	24.8	24.8	24.8	79	19.2	2	4	90	0.00	29.936 
11:40	24.8	24.8	24.8	79	19.2	1	4	90	0.00	29.936 
11:45	25.0	25.0	25.0	79	19.4	1	4	90	0.00	29.929 
11:50	25.6	25.6	25.6	78	19.7	1	4	90	0.00	29.929 
11:55	26.0	26.0	26.0	77	19.8	1	5	112	0.00	29.929 
12:00	26.6	26.6	26.6	77	20.4	0	3	248	0.00	29.923 
12:05	26.9	26.9	26.9	75	20.1	1	4	248	0.00	29.923 
12:10	26.9	26.9	26.9	75	20.1	1	3	248	0.00	29.923 
12:15	27.0	27.0	27.0	74	19.8	1	4	248	0.00	29.914 
12:20	27.2	27.2	27.2	73	19.7	1	4	248	0.00	29.914 
12:25	27.3	27.3	27.3	72	19.5	1	4	248	0.00	29.914 
12:30	27.5	27.5	27.5	71	19.4	1	4	248	0.00	29.912 
12:35	27.5	27.5	27.5	71	19.4	1	7	68	0.00	29.912 
12:40	27.8	27.8	27.8	71	19.6	1	5	248	0.00	29.912 
12:45	27.8	27.8	27.8	70	19.3	1	5	248	0.01	29.901 
12:50	28.1	28.1	28.1	70	19.6	1	6	248	0.00	29.901 
12:55	28.2	28.2	28.2	69	19.4	1	6	248	0.00	29.901 
13:00	28.2	28.2	28.2	69	19.4	1	4	112	0.00	29.894 
13:05	28.5	28.5	28.5	69	19.6	1	4	248	0.01	29.894 
13:10	28.7	28.7	28.7	68	19.5	1	4	68	0.00	29.894 
13:15	28.7	28.7	28.7	67	19.2	0	3	292	0.01	29.880 
13:20	29.0	29.0	29.0	66	19.1	0	3	22	0.00	29.880 
13:25	29.3	29.3	29.3	67	19.7	1	4	248	0.01	29.880 
13:30	29.5	29.5	29.5	66	19.6	0	3	248	0.00	29.877 
13:35	29.5	29.5	29.5	66	19.6	1	5	315	0.00	29.877 
13:40	29.3	29.3	29.3	65	19.0	1	4	248	0.01	29.877 
13:45	28.7	28.7	28.7	66	18.8	2	4	90	0.00	29.866 
13:50	28.4	28.4	28.4	67	18.9	1	5	90	0.00	29.866 
13:55	28.2	28.2	28.2	67	18.7	1	4	248	0.00	29.866 
14:00	28.1	28.1	28.1	68	18.9	1	3	90	0.01	29.867 
14:05	28.2	28.2	28.2	68	19.0	1	4	270	0.00	29.867 
14:10	28.4	28.4	28.4	68	19.2	0	3	270	0.00	29.867 
14:15	28.8	28.8	28.8	68	19.6	0	1	270	0.00	29.856 
14:20	29.1	29.1	29.1	67	19.5	1	2	270	0.00	29.856 
14:25	29.5	29.5	29.5	66	19.6	1	4	248	0.00	29.856 
14:30	29.8	29.8	29.8	66	19.8	1	5	248	0.00	29.860 
14:35	30.1	30.1	30.1	65	19.8	2	5	248	0.01	29.860 
14:40	30.1	30.1	30.1	64	19.4	2	6	248	0.00	29.860 
14:45	30.1	30.1	30.1	65	19.8	1	6	225	0.00	29.857 
14:50	30.1	30.1	30.1	65	19.8	1	5	315	0.00	29.857 
14:55	30.0	30.0	30.0	65	19.7	1	4	68	0.00	29.857 
15:00	30.0	30.0	30.0	65	19.7	1	4	225	0.00	29.847 
15:05	30.0	30.0	30.0	66	20.0	0	3	68	0.01	29.847 
15:10	29.8	29.8	29.8	66	19.8	0	2	68	0.00	29.847 
15:15	29.8	29.8	29.8	66	19.8	1	3	68	0.00	29.846 
15:20	29.7	29.7	29.7	67	20.1	1	3	68	0.00	29.846 
15:25	29.8	29.8	29.8	66	19.8	1	4	68	0.00	29.846 
15:30	29.8	29.8	29.8	66	19.8	1	5	248	0.00	29.843 
15:35	29.8	29.8	29.8	66	19.8	1	4	270	0.00	29.843 
15:40	30.0	30.0	30.0	67	20.4	1	3	270	0.00	29.843 
15:45	30.1	30.1	30.1	67	20.5	0	2	248	0.00	29.842 
15:50	30.3	30.3	30.3	67	20.7	0	3	248	0.00	29.842 
15:55	30.4	30.4	30.4	67	20.8	0	2	248	0.00	29.842 
16:00	30.7	30.7	30.7	67	21.1	0	2	248	0.00	29.850 
16:05	30.7	30.7	30.7	67	21.1	0	1	248	0.01	29.850 
16:10	30.9	30.9	30.9	67	21.3	0	2	248	0.00	29.850 
16:15	31.0	31.0	31.0	66	21.0	0	2	248	0.00	29.849 
16:20	31.0	31.0	31.0	66	21.0	0	2	248	0.00	29.849 
16:25	31.0	31.0	31.0	66	21.0	0	3	248	0.00	29.849 
16:30	31.0	31.0	31.0	66	21.0	1	3	248	0.00	29.853 
16:35	31.0	31.0	31.0	66	21.0	1	2	248	0.00	29.853 
16:40	30.9	30.9	30.9	66	20.9	1	4	248	0.00	29.853 
16:45	30.9	30.9	30.9	67	21.3	0	2	248	0.00	29.859 
16:50	30.9	30.9	30.9	67	21.3	1	3	248	0.00	29.859 
16:55	30.7	30.7	30.7	68	21.4	1	4	248	0.00	29.859 
17:00	30.6	30.6	30.6	70	22.0	1	3	248	0.00	29.866 
17:05	30.3	30.3	30.3	71	22.0	0	2	248	0.00	29.866 
17:10	30.1	30.1	30.1	73	22.5	0	3	248	0.00	29.866 
17:15	30.0	30.0	30.0	75	23.1	1	3	248	0.00	29.882 
17:20	29.5	29.5	29.5	78	23.5	1	3	248	0.00	29.882 
17:25	29.3	29.3	29.3	80	23.9	0	2	248	0.00	29.882 
17:30	29.1	29.1	29.1	82	24.3	0	2	248	0.00	29.883 
17:35	29.1	29.1	29.1	83	24.6	0	1	248	0.00	29.883 
17:40	29.0	29.0	29.0	84	24.8	0	1	248	0.00	29.883 
17:45	29.0	29.0	29.0	84	24.8	0	0	---	0.00	29.886 
17:50	28.8	28.8	28.8	85	24.9	0	1	248	0.00	29.886 
17:55	28.8	28.8	28.8	85	24.9	0	1	248	0.00	29.886 
18:00	28.7	28.7	28.7	86	25.1	0	1	248	0.00	29.891 
18:05	28.7	28.7	28.7	86	25.1	0	2	248	0.00	29.891 
18:10	28.7	28.7	28.7	87	25.3	0	1	248	0.00	29.891 
18:15	28.7	28.7	28.7	87	25.3	0	2	248	0.00	29.894 
18:20	28.7	28.7	28.7	87	25.3	0	1	248	0.00	29.894 
18:25	28.7	28.7	28.7	88	25.6	0	2	248	0.00	29.894 
18:30	28.7	28.7	28.7	88	25.6	0	1	248	0.00	29.894 
18:35	28.5	28.5	28.5	88	25.4	0	1	248	0.00	29.894 
18:40	28.4	28.4	28.4	88	25.3	0	1	248	0.00	29.894 
18:45	28.2	28.2	28.2	88	25.1	0	1	248	0.00	29.901 
18:50	28.2	28.2	28.2	88	25.1	0	1	248	0.00	29.901 
18:55	28.2	28.2	28.2	88	25.1	0	1	248	0.00	29.901 
19:00	28.2	28.2	28.2	89	25.4	0	1	248	0.00	29.904 
19:05	28.4	28.4	28.4	89	25.6	0	1	248	0.00	29.904 
19:10	28.4	28.4	28.4	89	25.6	0	3	248	0.00	29.904 
19:15	28.4	28.4	28.4	89	25.6	0	1	248	0.00	29.918 
19:20	28.5	28.5	28.5	89	25.7	0	1	248	0.00	29.918 
19:25	28.7	28.7	28.7	89	25.9	0	2	292	0.00	29.918 
19:30	28.7	28.7	28.7	89	25.9	0	1	292	0.00	29.920 
19:35	28.8	28.8	28.8	90	26.2	0	3	292	0.00	29.920 
19:40	29.0	29.0	29.0	90	26.4	0	3	270	0.00	29.920 
19:45	29.0	29.0	29.0	90	26.4	0	3	270	0.00	29.920 
19:50	29.1	29.1	29.1	90	26.5	0	1	270	0.00	29.920 
19:55	29.1	29.1	29.1	90	26.5	0	2	270	0.00	29.920 
20:00	29.3	29.3	29.3	90	26.7	0	1	270	0.00	29.920 
20:05	29.3	29.3	29.3	90	26.7	1	2	270	0.00	29.920 
20:10	29.4	29.4	29.4	90	26.8	0	2	270	0.00	29.920 
20:15	29.4	29.4	29.4	90	26.8	0	2	270	0.00	29.931 
20:20	29.5	29.5	29.5	90	26.9	0	1	270	0.00	29.931 
20:25	29.5	29.5	29.5	90	26.9	0	3	270	0.00	29.931 
20:30	29.5	29.5	29.5	90	26.9	0	2	270	0.00	29.929 
20:35	29.5	29.5	29.5	90	26.9	0	2	270	0.00	29.929 
20:40	29.5	29.5	29.5	90	26.9	0	1	270	0.00	29.929 
20:45	29.7	29.7	29.7	90	27.1	0	2	270	0.00	29.936 
20:50	29.7	29.7	29.7	90	27.1	0	2	270	0.00	29.936 
20:55	29.7	29.7	29.7	90	27.1	0	1	270	0.00	29.936 
21:00	29.8	29.8	29.8	90	27.2	0	2	270	0.00	29.945 
21:05	29.8	29.8	29.8	90	27.2	1	3	270	0.00	29.945 
21:10	29.8	29.8	29.8	90	27.2	0	2	270	0.00	29.945 
21:15	30.0	30.0	30.0	90	27.4	1	3	270	0.00	29.951 
21:20	30.0	30.0	30.0	89	27.2	1	3	270	0.00	29.951 
21:25	30.1	30.1	30.1	89	27.3	1	2	292	0.00	29.951 
21:30	30.1	30.1	30.1	89	27.3	1	2	292	0.00	29.956 
21:35	30.1	30.1	30.1	89	27.3	1	3	292	0.00	29.956 
21:40	30.1	30.1	30.1	88	27.0	1	4	292	0.00	29.956 
21:45	30.3	30.3	30.3	88	27.2	1	3	270	0.00	29.966 
21:50	30.3	30.3	30.3	88	27.2	1	4	270	0.00	29.966 
21:55	30.1	30.1	30.1	87	26.7	1	4	315	0.00	29.966 
22:00	30.0	30.0	30.0	86	26.3	1	4	292	0.00	29.972 
22:05	29.8	29.8	29.8	85	25.9	1	5	270	0.00	29.972 
22:10	29.8	29.8	29.8	85	25.9	2	4	292	0.00	29.972 
22:15	29.8	29.8	29.8	84	25.6	2	5	270	0.00	29.973 
22:20	29.8	29.8	29.8	84	25.6	2	4	270	0.00	29.973 
22:25	29.8	29.8	29.8	84	25.6	1	3	315	0.00	29.973 
22:30	29.8	29.8	29.8	84	25.6	2	5	270	0.00	29.983 
22:35	29.8	29.8	29.8	84	25.6	2	5	338	0.00	29.983 
22:40	29.8	29.8	29.8	84	25.6	1	2	248	0.00	29.983 
22:45	29.8	29.8	29.8	84	25.6	1	5	315	0.00	29.985 
22:50	29.8	29.8	29.8	84	25.6	2	5	292	0.00	29.985 
22:55	29.8	29.8	29.8	84	25.6	1	4	270	0.00	29.985 
23:00	29.8	29.8	29.8	84	25.6	2	5	270	0.00	29.989 
23:05	29.8	29.8	29.8	84	25.6	1	5	270	0.00	29.989 
23:10	29.8	29.8	29.8	84	25.6	1	4	270	0.00	29.989 
23:15	29.8	29.8	29.8	84	25.6	1	3	338	0.00	29.999 
23:20	29.8	29.8	29.8	85	25.9	1	4	338	0.00	29.999 
23:25	29.7	29.7	29.7	85	25.8	1	3	248	0.00	29.999 
23:30	29.7	29.7	29.7	85	25.8	1	3	315	0.00	30.001 
23:35	29.7	29.7	29.7	85	25.8	1	2	315	0.00	30.001 
23:40	29.7	29.7	29.7	85	25.8	1	5	270	0.00	30.001 
23:45	29.7	29.7	29.7	86	26.0	1	4	270	0.00	30.009 
23:50	29.7	29.7	29.7	85	25.8	1	4	270	0.00	30.009 
23:55	29.7	29.7	29.7	85	25.8	1	3	0	0.00	30.009 

CoCoRaHS
IN-AL-39
A2 Web Hosting
Creative Commons License
GoDaddy
search engine by freefind advanced

loaded 2018-11-19 11:45:51 • last modified 2010-11-18 10:43:29
Privacy PolicyDisclaimer
• wx.awcolley.com is powered by PmWiki v.2002016 •
• all content (unless otherwise noted) © 2018 A W Colley